sensor_id;sensor_type;location;lat;lon;timestamp;temperature;humidity
28520;DHT22;15732;48.534;20.382;2023-07-31T00:00:07;18.20;99.90
28520;DHT22;15732;48.534;20.382;2023-07-31T00:02:35;18.20;99.90
28520;DHT22;15732;48.534;20.382;2023-07-31T00:05:03;18.20;99.90
28520;DHT22;15732;48.534;20.382;2023-07-31T00:07:31;18.10;99.90
28520;DHT22;15732;48.534;20.382;2023-07-31T00:09:59;18.10;99.90
28520;DHT22;15732;48.534;20.382;2023-07-31T00:12:26;18.10;99.90
28520;DHT22;15732;48.534;20.382;2023-07-31T00:14:53;18.00;99.90
28520;DHT22;15732;48.534;20.382;2023-07-31T00:17:21;17.90;99.90
28520;DHT22;15732;48.534;20.382;2023-07-31T00:19:48;17.80;99.90
28520;DHT22;15732;48.534;20.382;2023-07-31T00:22:17;17.80;99.90
28520;DHT22;15732;48.534;20.382;2023-07-31T00:24:44;17.70;99.90
28520;DHT22;15732;48.534;20.382;2023-07-31T00:27:11;17.70;99.90
28520;DHT22;15732;48.534;20.382;2023-07-31T00:29:38;17.60;99.90
28520;DHT22;15732;48.534;20.382;2023-07-31T00:32:07;17.60;99.90
28520;DHT22;15732;48.534;20.382;2023-07-31T00:34:38;17.50;99.90
28520;DHT22;15732;48.534;20.382;2023-07-31T00:37:06;17.50;99.90
28520;DHT22;15732;48.534;20.382;2023-07-31T00:39:34;17.40;99.90
28520;DHT22;15732;48.534;20.382;2023-07-31T00:42:01;17.30;99.90
28520;DHT22;15732;48.534;20.382;2023-07-31T00:44:28;17.40;99.90
28520;DHT22;15732;48.534;20.382;2023-07-31T00:46:56;17.40;99.90
28520;DHT22;15732;48.534;20.382;2023-07-31T00:49:26;17.40;99.90
28520;DHT22;15732;48.534;20.382;2023-07-31T00:51:54;17.50;99.90
28520;DHT22;15732;48.534;20.382;2023-07-31T00:54:26;17.50;99.90
28520;DHT22;15732;48.534;20.382;2023-07-31T00:56:54;17.40;99.90
28520;DHT22;15732;48.534;20.382;2023-07-31T00:59:21;17.40;99.90
28520;DHT22;15732;48.534;20.382;2023-07-31T01:01:49;17.50;99.90
28520;DHT22;15732;48.534;20.382;2023-07-31T01:04:21;17.50;99.90
28520;DHT22;15732;48.534;20.382;2023-07-31T01:11:53;17.40;99.90
28520;DHT22;15732;48.534;20.382;2023-07-31T01:14:23;17.20;99.90
28520;DHT22;15732;48.534;20.382;2023-07-31T01:16:50;17.20;99.90
28520;DHT22;15732;48.534;20.382;2023-07-31T01:19:23;17.10;99.90
28520;DHT22;15732;48.534;20.382;2023-07-31T01:27:58;16.90;99.90
28520;DHT22;15732;48.534;20.382;2023-07-31T01:30:31;16.90;99.90
28520;DHT22;15732;48.534;20.382;2023-07-31T01:33:02;16.90;99.90
28520;DHT22;15732;48.534;20.382;2023-07-31T01:35:35;16.90;99.90
28520;DHT22;15732;48.534;20.382;2023-07-31T01:38:07;17.00;99.90
28520;DHT22;15732;48.534;20.382;2023-07-31T01:40:34;17.10;99.90
28520;DHT22;15732;48.534;20.382;2023-07-31T01:43:01;17.10;99.90
28520;DHT22;15732;48.534;20.382;2023-07-31T01:45:32;17.10;99.90
28520;DHT22;15732;48.534;20.382;2023-07-31T01:47:59;17.20;99.90
28520;DHT22;15732;48.534;20.382;2023-07-31T01:50:27;17.20;99.90
28520;DHT22;15732;48.534;20.382;2023-07-31T01:52:54;17.20;99.90
28520;DHT22;15732;48.534;20.382;2023-07-31T01:55:21;17.30;99.90
28520;DHT22;15732;48.534;20.382;2023-07-31T01:57:53;17.30;99.90
28520;DHT22;15732;48.534;20.382;2023-07-31T02:00:24;17.20;99.90
28520;DHT22;15732;48.534;20.382;2023-07-31T02:02:51;17.00;99.90
28520;DHT22;15732;48.534;20.382;2023-07-31T02:05:19;17.00;99.90
28520;DHT22;15732;48.534;20.382;2023-07-31T02:07:46;17.00;99.90
28520;DHT22;15732;48.534;20.382;2023-07-31T02:10:17;17.00;99.90
28520;DHT22;15732;48.534;20.382;2023-07-31T02:12:44;17.00;99.90
28520;DHT22;15732;48.534;20.382;2023-07-31T02:15:16;17.00;99.90
28520;DHT22;15732;48.534;20.382;2023-07-31T02:17:43;16.90;99.90
28520;DHT22;15732;48.534;20.382;2023-07-31T02:20:15;17.00;99.90
28520;DHT22;15732;48.534;20.382;2023-07-31T02:22:42;17.00;99.90
28520;DHT22;15732;48.534;20.382;2023-07-31T02:25:13;17.00;99.90
28520;DHT22;15732;48.534;20.382;2023-07-31T02:27:40;17.00;99.90
28520;DHT22;15732;48.534;20.382;2023-07-31T02:30:09;17.00;99.90
28520;DHT22;15732;48.534;20.382;2023-07-31T02:32:37;17.00;99.90
28520;DHT22;15732;48.534;20.382;2023-07-31T02:35:06;17.00;99.90
28520;DHT22;15732;48.534;20.382;2023-07-31T02:37:39;17.00;99.90
28520;DHT22;15732;48.534;20.382;2023-07-31T02:40:07;17.00;99.90
28520;DHT22;15732;48.534;20.382;2023-07-31T02:42:35;16.90;99.90
28520;DHT22;15732;48.534;20.382;2023-07-31T02:45:07;16.90;99.90
28520;DHT22;15732;48.534;20.382;2023-07-31T02:47:34;16.90;99.90
28520;DHT22;15732;48.534;20.382;2023-07-31T02:50:01;16.80;99.90
28520;DHT22;15732;48.534;20.382;2023-07-31T02:52:33;16.70;99.90
28520;DHT22;15732;48.534;20.382;2023-07-31T02:55:05;16.80;99.90
28520;DHT22;15732;48.534;20.382;2023-07-31T02:57:32;16.70;99.90
28520;DHT22;15732;48.534;20.382;2023-07-31T02:59:59;16.60;99.90
28520;DHT22;15732;48.534;20.382;2023-07-31T03:02:26;16.70;99.90
28520;DHT22;15732;48.534;20.382;2023-07-31T03:04:58;16.60;99.90
28520;DHT22;15732;48.534;20.382;2023-07-31T03:07:25;16.60;99.90
28520;DHT22;15732;48.534;20.382;2023-07-31T03:09:52;16.60;99.90
28520;DHT22;15732;48.534;20.382;2023-07-31T03:12:23;16.60;99.90
28520;DHT22;15732;48.534;20.382;2023-07-31T03:14:54;16.70;99.90
28520;DHT22;15732;48.534;20.382;2023-07-31T03:17:21;16.70;99.90
28520;DHT22;15732;48.534;20.382;2023-07-31T03:19:49;16.80;99.90
28520;DHT22;15732;48.534;20.382;2023-07-31T03:22:17;16.80;99.90
28520;DHT22;15732;48.534;20.382;2023-07-31T03:24:44;16.80;99.90
28520;DHT22;15732;48.534;20.382;2023-07-31T03:27:11;16.70;99.90
28520;DHT22;15732;48.534;20.382;2023-07-31T03:29:38;16.70;99.90
28520;DHT22;15732;48.534;20.382;2023-07-31T03:32:05;16.60;99.90
28520;DHT22;15732;48.534;20.382;2023-07-31T03:34:33;16.70;99.90
28520;DHT22;15732;48.534;20.382;2023-07-31T03:37:05;16.80;99.90
28520;DHT22;15732;48.534;20.382;2023-07-31T03:39:32;16.70;99.90
28520;DHT22;15732;48.534;20.382;2023-07-31T03:42:00;16.60;99.90
28520;DHT22;15732;48.534;20.382;2023-07-31T03:44:27;16.60;99.90
28520;DHT22;15732;48.534;20.382;2023-07-31T03:46:54;16.50;99.90
28520;DHT22;15732;48.534;20.382;2023-07-31T03:49:22;16.60;99.90
28520;DHT22;15732;48.534;20.382;2023-07-31T03:51:49;16.60;99.90
28520;DHT22;15732;48.534;20.382;2023-07-31T03:54:17;16.60;99.90
28520;DHT22;15732;48.534;20.382;2023-07-31T03:56:44;16.60;99.90
28520;DHT22;15732;48.534;20.382;2023-07-31T03:59:11;16.70;99.90
28520;DHT22;15732;48.534;20.382;2023-07-31T04:01:38;16.60;99.90
28520;DHT22;15732;48.534;20.382;2023-07-31T04:04:06;16.60;99.90
28520;DHT22;15732;48.534;20.382;2023-07-31T04:06:33;16.50;99.90
28520;DHT22;15732;48.534;20.382;2023-07-31T04:09:05;16.40;99.90
28520;DHT22;15732;48.534;20.382;2023-07-31T04:11:32;16.20;99.90
28520;DHT22;15732;48.534;20.382;2023-07-31T04:14:03;16.20;99.90
28520;DHT22;15732;48.534;20.382;2023-07-31T04:16:30;16.10;99.90
28520;DHT22;15732;48.534;20.382;2023-07-31T04:18:58;16.10;99.90
28520;DHT22;15732;48.534;20.382;2023-07-31T04:21:25;16.10;99.90
28520;DHT22;15732;48.534;20.382;2023-07-31T04:23:55;16.00;99.90
28520;DHT22;15732;48.534;20.382;2023-07-31T04:26:27;16.00;99.90
28520;DHT22;15732;48.534;20.382;2023-07-31T04:28:55;16.10;99.90
28520;DHT22;15732;48.534;20.382;2023-07-31T04:31:26;16.10;99.90
28520;DHT22;15732;48.534;20.382;2023-07-31T04:33:53;16.20;99.90
28520;DHT22;15732;48.534;20.382;2023-07-31T04:36:20;16.10;99.90
28520;DHT22;15732;48.534;20.382;2023-07-31T04:38:48;16.00;99.90
28520;DHT22;15732;48.534;20.382;2023-07-31T04:41:19;16.00;99.90
28520;DHT22;15732;48.534;20.382;2023-07-31T04:43:46;16.00;99.90
28520;DHT22;15732;48.534;20.382;2023-07-31T04:46:17;16.10;99.90
28520;DHT22;15732;48.534;20.382;2023-07-31T04:48:44;16.10;99.90
28520;DHT22;15732;48.534;20.382;2023-07-31T04:51:12;16.10;99.90
28520;DHT22;15732;48.534;20.382;2023-07-31T04:53:43;16.20;99.90
28520;DHT22;15732;48.534;20.382;2023-07-31T04:56:10;16.30;99.90
28520;DHT22;15732;48.534;20.382;2023-07-31T04:58:41;16.40;99.90
28520;DHT22;15732;48.534;20.382;2023-07-31T05:01:12;16.40;99.90
28520;DHT22;15732;48.534;20.382;2023-07-31T05:03:43;16.50;99.90
28520;DHT22;15732;48.534;20.382;2023-07-31T05:06:14;16.60;99.90
28520;DHT22;15732;48.534;20.382;2023-07-31T05:08:42;16.70;99.90
28520;DHT22;15732;48.534;20.382;2023-07-31T05:11:09;16.80;99.90
28520;DHT22;15732;48.534;20.382;2023-07-31T05:13:36;16.80;99.90
28520;DHT22;15732;48.534;20.382;2023-07-31T05:16:03;16.80;99.90
28520;DHT22;15732;48.534;20.382;2023-07-31T05:18:30;16.80;99.90
28520;DHT22;15732;48.534;20.382;2023-07-31T05:20:57;16.80;99.90
28520;DHT22;15732;48.534;20.382;2023-07-31T05:23:24;16.90;99.90
28520;DHT22;15732;48.534;20.382;2023-07-31T05:26:01;16.90;99.90
28520;DHT22;15732;48.534;20.382;2023-07-31T05:28:34;16.90;99.90
28520;DHT22;15732;48.534;20.382;2023-07-31T05:31:05;17.00;99.90
28520;DHT22;15732;48.534;20.382;2023-07-31T05:33:33;16.90;99.90
28520;DHT22;15732;48.534;20.382;2023-07-31T05:36:00;17.10;99.90
28520;DHT22;15732;48.534;20.382;2023-07-31T05:38:31;17.10;99.90
28520;DHT22;15732;48.534;20.382;2023-07-31T05:40:58;17.20;99.90
28520;DHT22;15732;48.534;20.382;2023-07-31T05:43:25;17.30;99.90
28520;DHT22;15732;48.534;20.382;2023-07-31T05:45:56;17.40;99.90
28520;DHT22;15732;48.534;20.382;2023-07-31T05:48:23;17.40;99.90
28520;DHT22;15732;48.534;20.382;2023-07-31T05:50:51;17.50;99.90
28520;DHT22;15732;48.534;20.382;2023-07-31T05:53:18;17.60;99.90
28520;DHT22;15732;48.534;20.382;2023-07-31T05:55:45;17.80;99.90
28520;DHT22;15732;48.534;20.382;2023-07-31T05:58:12;17.80;99.90
28520;DHT22;15732;48.534;20.382;2023-07-31T06:00:40;17.80;99.90
28520;DHT22;15732;48.534;20.382;2023-07-31T06:03:07;17.90;99.90
28520;DHT22;15732;48.534;20.382;2023-07-31T06:05:35;18.10;99.90
28520;DHT22;15732;48.534;20.382;2023-07-31T06:08:02;18.20;99.90
28520;DHT22;15732;48.534;20.382;2023-07-31T06:10:30;18.20;99.90
28520;DHT22;15732;48.534;20.382;2023-07-31T06:12:57;18.40;99.90
28520;DHT22;15732;48.534;20.382;2023-07-31T06:15:25;18.40;99.90
28520;DHT22;15732;48.534;20.382;2023-07-31T06:17:52;18.50;99.90
28520;DHT22;15732;48.534;20.382;2023-07-31T06:20:23;18.60;99.90
28520;DHT22;15732;48.534;20.382;2023-07-31T06:22:50;18.60;99.90
28520;DHT22;15732;48.534;20.382;2023-07-31T06:25:18;18.50;99.90
28520;DHT22;15732;48.534;20.382;2023-07-31T06:27:46;18.60;99.90
28520;DHT22;15732;48.534;20.382;2023-07-31T06:30:13;18.70;99.90
28520;DHT22;15732;48.534;20.382;2023-07-31T06:32:40;18.80;99.90
28520;DHT22;15732;48.534;20.382;2023-07-31T06:35:12;18.90;99.90
28520;DHT22;15732;48.534;20.382;2023-07-31T06:37:39;19.10;99.90
28520;DHT22;15732;48.534;20.382;2023-07-31T06:40:12;19.20;99.90
28520;DHT22;15732;48.534;20.382;2023-07-31T06:42:39;19.40;99.90
28520;DHT22;15732;48.534;20.382;2023-07-31T06:45:08;19.30;99.90
28520;DHT22;15732;48.534;20.382;2023-07-31T06:47:37;19.50;99.90
28520;DHT22;15732;48.534;20.382;2023-07-31T06:50:05;19.60;99.90
28520;DHT22;15732;48.534;20.382;2023-07-31T06:52:33;19.70;99.90
28520;DHT22;15732;48.534;20.382;2023-07-31T06:55:25;19.60;99.90
28520;DHT22;15732;48.534;20.382;2023-07-31T06:57:52;19.60;99.90
28520;DHT22;15732;48.534;20.382;2023-07-31T07:00:21;19.60;99.90
28520;DHT22;15732;48.534;20.382;2023-07-31T07:02:49;19.60;99.90
28520;DHT22;15732;48.534;20.382;2023-07-31T07:05:17;19.60;99.90
28520;DHT22;15732;48.534;20.382;2023-07-31T07:07:45;19.50;99.90
28520;DHT22;15732;48.534;20.382;2023-07-31T07:10:12;19.30;99.90
28520;DHT22;15732;48.534;20.382;2023-07-31T07:12:39;19.40;99.90
28520;DHT22;15732;48.534;20.382;2023-07-31T07:15:10;19.40;99.90
28520;DHT22;15732;48.534;20.382;2023-07-31T07:17:38;19.50;99.90
28520;DHT22;15732;48.534;20.382;2023-07-31T07:20:09;19.60;99.90
28520;DHT22;15732;48.534;20.382;2023-07-31T07:22:35;19.60;99.90
28520;DHT22;15732;48.534;20.382;2023-07-31T07:25:03;19.70;99.90
28520;DHT22;15732;48.534;20.382;2023-07-31T07:27:30;19.70;99.90
28520;DHT22;15732;48.534;20.382;2023-07-31T07:30:01;19.80;99.90
28520;DHT22;15732;48.534;20.382;2023-07-31T07:32:29;19.90;99.90
28520;DHT22;15732;48.534;20.382;2023-07-31T07:34:56;20.00;99.90
28520;DHT22;15732;48.534;20.382;2023-07-31T07:37:23;20.10;99.90
28520;DHT22;15732;48.534;20.382;2023-07-31T07:39:50;20.20;99.90
28520;DHT22;15732;48.534;20.382;2023-07-31T07:42:18;20.30;99.90
28520;DHT22;15732;48.534;20.382;2023-07-31T07:44:48;20.30;99.90
28520;DHT22;15732;48.534;20.382;2023-07-31T07:47:20;20.40;99.90
28520;DHT22;15732;48.534;20.382;2023-07-31T07:49:47;20.50;99.90
28520;DHT22;15732;48.534;20.382;2023-07-31T07:52:14;20.50;99.90
28520;DHT22;15732;48.534;20.382;2023-07-31T07:54:42;20.60;99.90
28520;DHT22;15732;48.534;20.382;2023-07-31T07:57:09;20.70;99.90
28520;DHT22;15732;48.534;20.382;2023-07-31T07:59:36;20.70;99.90
28520;DHT22;15732;48.534;20.382;2023-07-31T08:02:07;20.90;99.90
28520;DHT22;15732;48.534;20.382;2023-07-31T08:04:38;21.00;99.90
28520;DHT22;15732;48.534;20.382;2023-07-31T08:07:05;21.20;99.90
28520;DHT22;15732;48.534;20.382;2023-07-31T08:09:36;21.30;99.90
28520;DHT22;15732;48.534;20.382;2023-07-31T08:12:05;21.40;99.90
28520;DHT22;15732;48.534;20.382;2023-07-31T08:14:33;21.50;99.90
28520;DHT22;15732;48.534;20.382;2023-07-31T08:17:01;21.50;99.90
28520;DHT22;15732;48.534;20.382;2023-07-31T08:19:28;21.50;99.90
28520;DHT22;15732;48.534;20.382;2023-07-31T08:21:55;21.50;99.90
28520;DHT22;15732;48.534;20.382;2023-07-31T08:24:23;21.50;99.90
28520;DHT22;15732;48.534;20.382;2023-07-31T08:26:55;21.50;99.90
28520;DHT22;15732;48.534;20.382;2023-07-31T08:29:22;21.60;99.90
28520;DHT22;15732;48.534;20.382;2023-07-31T08:31:50;21.70;99.90
28520;DHT22;15732;48.534;20.382;2023-07-31T08:34:18;21.80;99.90
28520;DHT22;15732;48.534;20.382;2023-07-31T08:36:45;22.00;99.90
28520;DHT22;15732;48.534;20.382;2023-07-31T08:39:16;22.10;99.90
28520;DHT22;15732;48.534;20.382;2023-07-31T08:41:48;22.30;99.90
28520;DHT22;15732;48.534;20.382;2023-07-31T08:44:15;22.40;99.90
28520;DHT22;15732;48.534;20.382;2023-07-31T08:46:45;22.60;99.90
28520;DHT22;15732;48.534;20.382;2023-07-31T08:49:12;22.60;99.90
28520;DHT22;15732;48.534;20.382;2023-07-31T08:51:40;22.70;99.90
28520;DHT22;15732;48.534;20.382;2023-07-31T08:54:08;22.80;99.90
28520;DHT22;15732;48.534;20.382;2023-07-31T08:56:36;22.90;99.90
28520;DHT22;15732;48.534;20.382;2023-07-31T08:59:03;23.00;99.90
28520;DHT22;15732;48.534;20.382;2023-07-31T09:01:36;23.10;99.90
28520;DHT22;15732;48.534;20.382;2023-07-31T09:04:09;23.20;99.90
28520;DHT22;15732;48.534;20.382;2023-07-31T09:06:37;23.30;99.90
28520;DHT22;15732;48.534;20.382;2023-07-31T09:09:05;23.30;99.90
28520;DHT22;15732;48.534;20.382;2023-07-31T09:11:33;23.20;99.90
28520;DHT22;15732;48.534;20.382;2023-07-31T09:14:00;23.20;99.90
28520;DHT22;15732;48.534;20.382;2023-07-31T09:16:51;23.10;99.90
28520;DHT22;15732;48.534;20.382;2023-07-31T09:21:53;23.00;99.90
28520;DHT22;15732;48.534;20.382;2023-07-31T09:24:28;23.00;99.90
28520;DHT22;15732;48.534;20.382;2023-07-31T09:27:01;23.00;99.90
28520;DHT22;15732;48.534;20.382;2023-07-31T09:29:28;23.10;99.90
28520;DHT22;15732;48.534;20.382;2023-07-31T09:31:59;23.10;99.90
28520;DHT22;15732;48.534;20.382;2023-07-31T09:34:37;23.10;99.90
28520;DHT22;15732;48.534;20.382;2023-07-31T09:37:08;23.30;99.90
28520;DHT22;15732;48.534;20.382;2023-07-31T09:39:46;23.40;99.90
28520;DHT22;15732;48.534;20.382;2023-07-31T09:42:13;23.50;99.90
28520;DHT22;15732;48.534;20.382;2023-07-31T09:44:41;23.60;99.90
28520;DHT22;15732;48.534;20.382;2023-07-31T09:47:22;23.80;99.90
28520;DHT22;15732;48.534;20.382;2023-07-31T09:49:50;23.90;99.90
28520;DHT22;15732;48.534;20.382;2023-07-31T09:52:18;24.00;99.90
28520;DHT22;15732;48.534;20.382;2023-07-31T09:54:49;24.10;99.90
28520;DHT22;15732;48.534;20.382;2023-07-31T09:57:21;24.10;99.90
28520;DHT22;15732;48.534;20.382;2023-07-31T09:59:52;24.20;99.90
28520;DHT22;15732;48.534;20.382;2023-07-31T10:02:22;24.10;99.90
28520;DHT22;15732;48.534;20.382;2023-07-31T10:04:55;24.10;99.90
28520;DHT22;15732;48.534;20.382;2023-07-31T10:07:26;24.10;99.90
28520;DHT22;15732;48.534;20.382;2023-07-31T10:09:57;24.20;99.90
28520;DHT22;15732;48.534;20.382;2023-07-31T10:12:26;24.20;99.90
28520;DHT22;15732;48.534;20.382;2023-07-31T10:14:59;24.20;99.90
28520;DHT22;15732;48.534;20.382;2023-07-31T10:17:26;24.30;99.90
28520;DHT22;15732;48.534;20.382;2023-07-31T10:19:58;24.30;99.90
28520;DHT22;15732;48.534;20.382;2023-07-31T10:22:32;24.40;99.90
28520;DHT22;15732;48.534;20.382;2023-07-31T10:25:00;24.40;99.90
28520;DHT22;15732;48.534;20.382;2023-07-31T10:27:31;24.50;99.90
28520;DHT22;15732;48.534;20.382;2023-07-31T10:29:59;24.50;99.90
28520;DHT22;15732;48.534;20.382;2023-07-31T10:32:27;24.50;99.90
28520;DHT22;15732;48.534;20.382;2023-07-31T10:34:55;24.50;99.90
28520;DHT22;15732;48.534;20.382;2023-07-31T10:37:28;24.50;99.90
28520;DHT22;15732;48.534;20.382;2023-07-31T10:42:51;24.50;99.90
28520;DHT22;15732;48.534;20.382;2023-07-31T10:45:39;24.50;99.90
28520;DHT22;15732;48.534;20.382;2023-07-31T10:48:12;24.50;99.90
28520;DHT22;15732;48.534;20.382;2023-07-31T10:50:48;24.50;99.90
28520;DHT22;15732;48.534;20.382;2023-07-31T10:53:42;24.60;99.90
28520;DHT22;15732;48.534;20.382;2023-07-31T10:56:13;24.60;99.90
28520;DHT22;15732;48.534;20.382;2023-07-31T10:58:45;24.60;99.90
28520;DHT22;15732;48.534;20.382;2023-07-31T11:01:13;24.70;99.90
28520;DHT22;15732;48.534;20.382;2023-07-31T11:03:46;24.70;99.90
28520;DHT22;15732;48.534;20.382;2023-07-31T11:06:18;24.70;99.90
28520;DHT22;15732;48.534;20.382;2023-07-31T11:08:49;24.80;99.90
28520;DHT22;15732;48.534;20.382;2023-07-31T11:11:18;24.70;99.90
28520;DHT22;15732;48.534;20.382;2023-07-31T11:13:51;24.80;99.90
28520;DHT22;15732;48.534;20.382;2023-07-31T11:16:21;24.80;99.90
28520;DHT22;15732;48.534;20.382;2023-07-31T11:18:49;24.80;99.90
28520;DHT22;15732;48.534;20.382;2023-07-31T11:21:22;24.70;99.90
28520;DHT22;15732;48.534;20.382;2023-07-31T11:23:56;24.80;99.90
28520;DHT22;15732;48.534;20.382;2023-07-31T11:26:29;24.70;99.90
28520;DHT22;15732;48.534;20.382;2023-07-31T11:28:57;24.70;99.90
28520;DHT22;15732;48.534;20.382;2023-07-31T11:31:24;24.70;99.90
28520;DHT22;15732;48.534;20.382;2023-07-31T11:34:07;24.70;99.90
28520;DHT22;15732;48.534;20.382;2023-07-31T11:36:55;24.70;99.90
28520;DHT22;15732;48.534;20.382;2023-07-31T11:39:22;24.60;99.90
28520;DHT22;15732;48.534;20.382;2023-07-31T11:41:49;24.60;99.90
28520;DHT22;15732;48.534;20.382;2023-07-31T11:44:16;24.60;99.90
28520;DHT22;15732;48.534;20.382;2023-07-31T11:46:47;24.60;99.90
28520;DHT22;15732;48.534;20.382;2023-07-31T11:49:15;24.60;99.90
28520;DHT22;15732;48.534;20.382;2023-07-31T11:51:47;24.60;99.90
28520;DHT22;15732;48.534;20.382;2023-07-31T11:54:14;24.50;99.90
28520;DHT22;15732;48.534;20.382;2023-07-31T11:56:41;24.50;99.90
28520;DHT22;15732;48.534;20.382;2023-07-31T11:59:10;24.50;99.90
28520;DHT22;15732;48.534;20.382;2023-07-31T12:01:39;24.50;99.90
28520;DHT22;15732;48.534;20.382;2023-07-31T12:04:06;24.50;99.90
28520;DHT22;15732;48.534;20.382;2023-07-31T12:06:37;24.60;99.90
28520;DHT22;15732;48.534;20.382;2023-07-31T12:09:05;24.60;99.90
28520;DHT22;15732;48.534;20.382;2023-07-31T12:11:43;24.50;99.90
28520;DHT22;15732;48.534;20.382;2023-07-31T12:14:27;24.60;99.90
28520;DHT22;15732;48.534;20.382;2023-07-31T12:17:00;24.60;99.90
28520;DHT22;15732;48.534;20.382;2023-07-31T12:19:27;24.60;99.90
28520;DHT22;15732;48.534;20.382;2023-07-31T12:22:12;24.60;99.90
28520;DHT22;15732;48.534;20.382;2023-07-31T12:24:42;24.60;99.90
28520;DHT22;15732;48.534;20.382;2023-07-31T12:27:33;24.60;99.90
28520;DHT22;15732;48.534;20.382;2023-07-31T12:30:00;24.60;99.90
28520;DHT22;15732;48.534;20.382;2023-07-31T12:32:30;24.60;99.90
28520;DHT22;15732;48.534;20.382;2023-07-31T12:34:59;24.60;99.90
28520;DHT22;15732;48.534;20.382;2023-07-31T12:37:28;24.60;99.90
28520;DHT22;15732;48.534;20.382;2023-07-31T12:39:56;24.70;99.90
28520;DHT22;15732;48.534;20.382;2023-07-31T12:42:27;24.60;99.90
28520;DHT22;15732;48.534;20.382;2023-07-31T12:44:54;24.60;99.90
28520;DHT22;15732;48.534;20.382;2023-07-31T12:47:21;24.60;99.90
28520;DHT22;15732;48.534;20.382;2023-07-31T12:49:49;24.70;99.90
28520;DHT22;15732;48.534;20.382;2023-07-31T12:52:16;24.60;99.90
28520;DHT22;15732;48.534;20.382;2023-07-31T12:54:43;24.60;99.90
28520;DHT22;15732;48.534;20.382;2023-07-31T12:57:15;24.60;99.90
28520;DHT22;15732;48.534;20.382;2023-07-31T12:59:42;24.70;99.90
28520;DHT22;15732;48.534;20.382;2023-07-31T13:02:09;24.70;99.90
28520;DHT22;15732;48.534;20.382;2023-07-31T13:04:37;24.70;99.90
28520;DHT22;15732;48.534;20.382;2023-07-31T13:07:08;24.70;99.90
28520;DHT22;15732;48.534;20.382;2023-07-31T13:09:35;24.70;99.90
28520;DHT22;15732;48.534;20.382;2023-07-31T13:12:03;24.70;99.90
28520;DHT22;15732;48.534;20.382;2023-07-31T13:14:31;24.80;99.90
28520;DHT22;15732;48.534;20.382;2023-07-31T13:16:58;24.80;99.90
28520;DHT22;15732;48.534;20.382;2023-07-31T13:19:25;24.80;99.90
28520;DHT22;15732;48.534;20.382;2023-07-31T13:21:56;24.80;99.90
28520;DHT22;15732;48.534;20.382;2023-07-31T13:24:24;24.80;99.90
28520;DHT22;15732;48.534;20.382;2023-07-31T13:26:51;24.80;99.90
28520;DHT22;15732;48.534;20.382;2023-07-31T13:29:18;24.80;99.90
28520;DHT22;15732;48.534;20.382;2023-07-31T13:31:46;24.80;99.90
28520;DHT22;15732;48.534;20.382;2023-07-31T13:34:13;24.80;99.90
28520;DHT22;15732;48.534;20.382;2023-07-31T13:36:40;24.90;99.90
28520;DHT22;15732;48.534;20.382;2023-07-31T13:39:08;24.80;99.90
28520;DHT22;15732;48.534;20.382;2023-07-31T13:41:35;24.80;99.90
28520;DHT22;15732;48.534;20.382;2023-07-31T13:44:03;24.80;99.90
28520;DHT22;15732;48.534;20.382;2023-07-31T13:46:31;24.80;99.90
28520;DHT22;15732;48.534;20.382;2023-07-31T13:48:59;24.80;99.90
28520;DHT22;15732;48.534;20.382;2023-07-31T13:51:27;24.80;99.90
28520;DHT22;15732;48.534;20.382;2023-07-31T13:53:58;24.90;99.90
28520;DHT22;15732;48.534;20.382;2023-07-31T13:56:26;24.90;99.90
28520;DHT22;15732;48.534;20.382;2023-07-31T13:58:57;24.90;99.90
28520;DHT22;15732;48.534;20.382;2023-07-31T14:01:24;24.90;99.90
28520;DHT22;15732;48.534;20.382;2023-07-31T14:03:51;24.90;99.90
28520;DHT22;15732;48.534;20.382;2023-07-31T14:06:22;24.90;99.90
28520;DHT22;15732;48.534;20.382;2023-07-31T14:08:49;24.90;99.90
28520;DHT22;15732;48.534;20.382;2023-07-31T14:11:16;24.90;99.90
28520;DHT22;15732;48.534;20.382;2023-07-31T14:13:48;24.90;99.90
28520;DHT22;15732;48.534;20.382;2023-07-31T14:16:15;24.90;99.90
28520;DHT22;15732;48.534;20.382;2023-07-31T14:18:46;24.90;99.90
28520;DHT22;15732;48.534;20.382;2023-07-31T14:21:18;25.00;99.90
28520;DHT22;15732;48.534;20.382;2023-07-31T14:23:45;24.90;99.90
28520;DHT22;15732;48.534;20.382;2023-07-31T14:26:12;24.90;99.90
28520;DHT22;15732;48.534;20.382;2023-07-31T14:28:39;24.90;99.90
28520;DHT22;15732;48.534;20.382;2023-07-31T14:31:05;24.90;99.90
28520;DHT22;15732;48.534;20.382;2023-07-31T14:33:33;24.90;99.90
28520;DHT22;15732;48.534;20.382;2023-07-31T14:36:00;24.90;99.90
28520;DHT22;15732;48.534;20.382;2023-07-31T14:38:27;25.00;99.90
28520;DHT22;15732;48.534;20.382;2023-07-31T14:40:54;25.00;99.90
28520;DHT22;15732;48.534;20.382;2023-07-31T14:43:22;25.00;99.90
28520;DHT22;15732;48.534;20.382;2023-07-31T14:45:49;25.00;99.90
28520;DHT22;15732;48.534;20.382;2023-07-31T14:48:16;25.00;99.90
28520;DHT22;15732;48.534;20.382;2023-07-31T14:50:48;25.00;99.90
28520;DHT22;15732;48.534;20.382;2023-07-31T14:53:19;24.90;99.90
28520;DHT22;15732;48.534;20.382;2023-07-31T14:55:46;24.90;99.90
28520;DHT22;15732;48.534;20.382;2023-07-31T14:58:18;24.90;99.90
28520;DHT22;15732;48.534;20.382;2023-07-31T15:00:45;24.90;99.90
28520;DHT22;15732;48.534;20.382;2023-07-31T15:03:13;24.90;99.90
28520;DHT22;15732;48.534;20.382;2023-07-31T15:05:40;24.90;99.90
28520;DHT22;15732;48.534;20.382;2023-07-31T15:08:07;24.90;99.90
28520;DHT22;15732;48.534;20.382;2023-07-31T15:10:34;24.90;99.90
28520;DHT22;15732;48.534;20.382;2023-07-31T15:13:05;24.90;99.90
28520;DHT22;15732;48.534;20.382;2023-07-31T15:15:33;24.90;99.90
28520;DHT22;15732;48.534;20.382;2023-07-31T15:18:04;24.90;99.90
28520;DHT22;15732;48.534;20.382;2023-07-31T15:20:32;25.00;99.90
28520;DHT22;15732;48.534;20.382;2023-07-31T15:23:03;25.00;99.90
28520;DHT22;15732;48.534;20.382;2023-07-31T15:25:30;25.00;99.90
28520;DHT22;15732;48.534;20.382;2023-07-31T15:27:57;25.00;99.90
28520;DHT22;15732;48.534;20.382;2023-07-31T15:30:29;25.00;99.90
28520;DHT22;15732;48.534;20.382;2023-07-31T15:32:56;25.00;99.90
28520;DHT22;15732;48.534;20.382;2023-07-31T15:35:24;25.00;99.90
28520;DHT22;15732;48.534;20.382;2023-07-31T15:37:51;25.00;99.90
28520;DHT22;15732;48.534;20.382;2023-07-31T15:40:22;25.00;99.90
28520;DHT22;15732;48.534;20.382;2023-07-31T15:42:50;25.00;99.90